createdAt,value
2023-05-10T00:02:40.610Z,96.80
2023-05-10T00:05:42.477Z,96.90
2023-05-10T00:08:44.291Z,97.20
2023-05-10T00:11:46.018Z,97.10
2023-05-10T00:14:47.589Z,97.10
2023-05-10T00:17:49.262Z,97.10
2023-05-10T00:20:50.930Z,97.40
2023-05-10T00:23:52.581Z,97.70
2023-05-10T00:26:54.122Z,97.90
2023-05-10T00:29:55.748Z,98.00
2023-05-10T00:32:57.399Z,97.70
2023-05-10T00:35:59.027Z,98.00
2023-05-10T00:39:00.723Z,97.80
2023-05-10T00:42:02.581Z,98.00
2023-05-10T00:45:04.604Z,98.00
2023-05-10T00:48:06.440Z,98.00
2023-05-10T00:51:08.151Z,98.10
2023-05-10T00:54:12.563Z,97.90
2023-05-10T00:57:14.179Z,97.90
2023-05-10T01:00:19.108Z,97.50
2023-05-10T01:03:20.840Z,97.50
2023-05-10T01:06:22.681Z,97.30
2023-05-10T01:09:27.201Z,97.20
2023-05-10T01:12:29.152Z,97.00
2023-05-10T01:15:32.021Z,96.80
2023-05-10T01:18:39.786Z,96.60
2023-05-10T01:21:57.411Z,96.70
2023-05-10T01:25:11.665Z,96.50
2023-05-10T01:28:24.975Z,96.50
2023-05-10T01:32:03.193Z,96.60
2023-05-10T01:35:13.849Z,96.70
2023-05-10T01:38:45.209Z,96.90
2023-05-10T01:41:59.862Z,96.70
2023-05-10T01:45:14.391Z,96.80
2023-05-10T01:48:16.974Z,96.80
2023-05-10T01:51:24.685Z,96.80
2023-05-10T01:54:27.708Z,96.70
2023-05-10T01:57:34.329Z,96.60
2023-05-10T02:00:37.615Z,96.60
2023-05-10T02:03:41.333Z,96.90
2023-05-10T02:06:44.337Z,97.00
2023-05-10T02:09:50.196Z,96.90
2023-05-10T02:12:53.417Z,96.90
2023-05-10T02:15:56.020Z,96.80
2023-05-10T02:19:00.010Z,96.70
2023-05-10T02:22:02.802Z,96.20
2023-05-10T02:25:05.029Z,96.20
2023-05-10T02:28:08.202Z,96.10
2023-05-10T02:31:11.469Z,96.10
2023-05-10T02:34:13.719Z,96.00
2023-05-10T02:37:16.954Z,96.00
2023-05-10T02:40:19.356Z,96.10
2023-05-10T02:43:24.716Z,96.10
2023-05-10T02:46:26.461Z,96.10
2023-05-10T02:49:28.096Z,96.20
2023-05-10T02:52:40.276Z,96.20
2023-05-10T02:55:44.666Z,96.00
2023-05-10T02:58:47.063Z,96.20
2023-05-10T03:01:48.744Z,96.20
2023-05-10T03:04:50.678Z,96.20
2023-05-10T03:07:53.191Z,95.90
2023-05-10T03:11:18.931Z,95.90
2023-05-10T03:14:35.701Z,95.70
2023-05-10T03:17:48.566Z,96.00
2023-05-10T03:20:52.345Z,96.00
2023-05-10T03:24:03.955Z,95.90
2023-05-10T03:27:06.727Z,96.00
2023-05-10T03:30:13.353Z,96.00
2023-05-10T03:33:15.197Z,95.90
2023-05-10T03:36:17.062Z,95.50
2023-05-10T03:39:18.729Z,95.30
2023-05-10T03:42:20.458Z,95.20
2023-05-10T03:45:22.148Z,95.30
2023-05-10T03:48:23.754Z,95.30
2023-05-10T03:51:28.930Z,95.40
2023-05-10T03:54:30.603Z,95.70
2023-05-10T03:57:32.234Z,95.70
2023-05-10T04:00:33.989Z,95.40
2023-05-10T04:03:37.305Z,95.40
2023-05-10T04:06:39.196Z,95.20
2023-05-10T04:09:41.194Z,95.40
2023-05-10T04:12:42.908Z,95.50
2023-05-10T04:15:46.105Z,95.30
2023-05-10T04:18:47.909Z,95.40
2023-05-10T04:21:49.557Z,95.50
2023-05-10T04:24:51.120Z,95.70
2023-05-10T04:27:53.191Z,95.50
2023-05-10T04:31:01.051Z,95.70
2023-05-10T04:34:02.786Z,95.70
2023-05-10T04:37:04.419Z,95.40
2023-05-10T04:40:07.045Z,95.10
2023-05-10T04:43:08.697Z,95.20
2023-05-10T04:46:10.485Z,95.10
2023-05-10T04:49:12.501Z,94.90
2023-05-10T04:52:15.281Z,94.80
2023-05-10T04:55:16.985Z,94.60
2023-05-10T04:58:18.617Z,94.50
2023-05-10T05:01:20.210Z,94.30
2023-05-10T05:04:23.835Z,94.00
2023-05-10T05:07:25.509Z,93.60
2023-05-10T05:10:27.144Z,93.50
2023-05-10T05:13:28.814Z,93.30
2023-05-10T05:16:32.274Z,92.90
2023-05-10T05:19:33.933Z,92.70
2023-05-10T05:22:37.218Z,92.00
2023-05-10T05:25:38.877Z,91.90
2023-05-10T05:28:40.479Z,91.40
2023-05-10T05:31:42.124Z,91.40
2023-05-10T05:34:46.321Z,91.30
2023-05-10T05:37:48.064Z,91.00
2023-05-10T05:40:49.640Z,91.00
2023-05-10T05:43:51.414Z,90.40
2023-05-10T05:46:53.100Z,90.50
2023-05-10T05:49:54.670Z,90.10
2023-05-10T05:52:57.457Z,90.20
2023-05-10T05:55:59.761Z,90.20
2023-05-10T05:59:01.420Z,90.50
2023-05-10T06:02:03.103Z,90.40
2023-05-10T06:05:05.092Z,90.40
2023-05-10T06:08:06.843Z,89.80
2023-05-10T06:11:08.409Z,89.00
2023-05-10T06:14:10.211Z,88.70
2023-05-10T06:17:11.871Z,87.80
2023-05-10T06:20:13.950Z,87.70
2023-05-10T06:23:15.572Z,86.90
2023-05-10T06:26:17.233Z,87.20
2023-05-10T06:29:18.841Z,87.80
2023-05-10T06:32:20.446Z,87.30
2023-05-10T06:35:22.239Z,86.50
2023-05-10T06:38:24.053Z,86.00
2023-05-10T06:41:25.676Z,86.70
2023-05-10T06:44:27.285Z,85.90
2023-05-10T06:47:28.960Z,85.40
2023-05-10T06:50:30.577Z,85.70
2023-05-10T06:53:32.170Z,85.40
2023-05-10T06:56:33.749Z,86.00
2023-05-10T06:59:35.411Z,85.20
2023-05-10T07:02:37.209Z,84.60
2023-05-10T07:05:38.976Z,84.70
2023-05-10T07:08:40.666Z,84.50
2023-05-10T07:11:42.431Z,85.40
2023-05-10T07:14:44.023Z,84.10
2023-05-10T07:17:46.506Z,84.60
2023-05-10T07:20:48.230Z,83.70
2023-05-10T07:23:50.437Z,83.60
2023-05-10T07:26:52.003Z,84.00
2023-05-10T07:29:53.565Z,83.00
2023-05-10T07:32:55.157Z,82.90
2023-05-10T07:35:56.768Z,81.20
2023-05-10T07:38:58.672Z,80.40
2023-05-10T07:42:00.293Z,80.60
2023-05-10T07:45:01.858Z,80.10
2023-05-10T07:48:03.625Z,80.00
2023-05-10T07:51:05.505Z,80.00
2023-05-10T07:54:07.256Z,79.90
2023-05-10T07:57:08.940Z,79.30
2023-05-10T08:00:14.111Z,78.90
2023-05-10T08:03:16.360Z,78.60
2023-05-10T08:06:19.577Z,78.70
2023-05-10T08:09:24.670Z,78.30
2023-05-10T08:12:26.394Z,79.10
2023-05-10T08:15:28.012Z,79.60
2023-05-10T08:18:29.647Z,81.20
2023-05-10T08:21:32.166Z,82.90
2023-05-10T08:24:39.327Z,83.40
2023-05-10T08:27:41.189Z,84.90
2023-05-10T08:30:42.842Z,86.10
2023-05-10T08:33:44.958Z,87.00
2023-05-10T08:36:46.608Z,86.90
2023-05-10T08:39:48.941Z,86.70
2023-05-10T08:43:03.498Z,86.20
2023-05-10T08:46:06.457Z,84.50
2023-05-10T08:49:11.265Z,85.10
2023-05-10T08:52:15.706Z,83.70
2023-05-10T08:55:17.805Z,82.10
2023-05-10T08:58:20.477Z,80.90
2023-05-10T09:01:23.223Z,81.60
2023-05-10T09:04:25.886Z,79.60
2023-05-10T09:07:28.765Z,77.40
2023-05-10T09:10:32.017Z,78.60
2023-05-10T09:13:33.834Z,76.50
2023-05-10T09:16:35.766Z,74.20
2023-05-10T09:19:37.367Z,72.70
2023-05-10T09:22:39.273Z,72.10
2023-05-10T09:25:42.932Z,73.60
2023-05-10T09:28:58.645Z,73.90
2023-05-10T09:32:00.311Z,76.20
2023-05-10T09:35:17.878Z,79.80
2023-05-10T09:38:19.970Z,80.40
2023-05-10T09:41:23.359Z,82.00
2023-05-10T09:44:26.991Z,81.80
2023-05-10T09:47:28.898Z,83.50
2023-05-10T09:50:31.377Z,81.50
2023-05-10T09:53:32.931Z,83.00
2023-05-10T09:56:39.798Z,80.50
2023-05-10T09:59:43.864Z,80.50
2023-05-10T10:02:55.062Z,79.80
2023-05-10T10:05:57.545Z,78.50
2023-05-10T10:08:59.199Z,79.00
2023-05-10T10:12:04.669Z,77.30
2023-05-10T10:15:07.766Z,76.10
2023-05-10T10:18:14.451Z,75.00
2023-05-10T10:21:16.565Z,77.80
2023-05-10T10:24:18.203Z,73.90
2023-05-10T10:27:38.330Z,73.30
2023-05-10T10:30:44.918Z,73.70
2023-05-10T10:34:08.261Z,70.80
2023-05-10T10:37:09.882Z,70.40
2023-05-10T10:40:34.494Z,70.90
2023-05-10T10:43:36.568Z,71.40
2023-05-10T10:47:03.357Z,71.40
2023-05-10T10:50:09.247Z,73.20
2023-05-10T10:53:12.917Z,72.80
2023-05-10T10:56:16.203Z,72.50
2023-05-10T10:59:28.975Z,74.50
2023-05-10T11:02:59.654Z,74.40
2023-05-10T11:06:02.737Z,76.10
2023-05-10T11:09:12.484Z,76.30
2023-05-10T11:12:14.203Z,77.30
2023-05-10T11:15:16.048Z,75.20
2023-05-10T11:18:37.706Z,76.00
2023-05-10T11:21:48.583Z,72.40
2023-05-10T11:25:00.069Z,69.80
2023-05-10T11:28:05.364Z,69.00
2023-05-10T11:31:07.196Z,69.10
2023-05-10T11:34:08.882Z,68.90
2023-05-10T11:37:10.601Z,65.80
2023-05-10T11:40:13.062Z,64.40
2023-05-10T11:43:14.739Z,64.10
2023-05-10T11:46:18.834Z,63.30
2023-05-10T11:49:23.983Z,62.50
2023-05-10T11:52:25.565Z,61.40
2023-05-10T11:55:27.453Z,58.20
2023-05-10T11:58:29.008Z,58.80
2023-05-10T12:01:31.484Z,57.50
2023-05-10T12:04:33.393Z,60.00
2023-05-10T12:07:35.066Z,56.90
2023-05-10T12:10:36.733Z,58.60
2023-05-10T12:13:43.837Z,56.90
2023-05-10T12:16:45.833Z,55.80
2023-05-10T12:19:48.102Z,55.00
2023-05-10T12:22:54.909Z,53.20
2023-05-10T12:26:04.845Z,55.00
2023-05-10T12:29:14.594Z,53.80
2023-05-10T12:32:16.254Z,54.80
2023-05-10T12:35:18.177Z,56.70
2023-05-10T12:38:39.310Z,55.60
2023-05-10T12:41:42.895Z,55.80
2023-05-10T12:44:45.576Z,55.70
2023-05-10T12:47:47.208Z,57.30
2023-05-10T12:50:49.286Z,56.20
2023-05-10T12:53:50.947Z,57.50
2023-05-10T12:56:52.566Z,56.90
2023-05-10T12:59:54.694Z,55.20
2023-05-10T13:02:56.316Z,53.90
2023-05-10T13:05:57.972Z,52.00
2023-05-10T13:08:59.579Z,52.30
2023-05-10T13:12:01.379Z,53.50
2023-05-10T13:15:04.299Z,53.70
2023-05-10T13:18:06.182Z,54.50
2023-05-10T13:21:08.462Z,56.60
2023-05-10T13:24:10.901Z,59.90
2023-05-10T13:27:12.507Z,61.60
2023-05-10T13:30:14.326Z,62.20
2023-05-10T13:33:16.136Z,62.60
2023-05-10T13:36:17.744Z,62.30
2023-05-10T13:39:19.364Z,60.90
2023-05-10T13:42:21.312Z,58.90
2023-05-10T13:45:22.987Z,58.10
2023-05-10T13:48:24.607Z,56.20
2023-05-10T13:51:26.196Z,56.90
2023-05-10T13:54:30.346Z,55.90
2023-05-10T13:57:32.020Z,56.70
2023-05-10T14:00:33.666Z,56.10
2023-05-10T14:03:35.383Z,56.20
2023-05-10T14:06:37.800Z,57.40
2023-05-10T14:09:39.416Z,56.50
2023-05-10T14:12:41.021Z,57.60
2023-05-10T14:15:42.819Z,59.50
2023-05-10T14:18:44.472Z,58.20
2023-05-10T14:21:46.168Z,58.90
2023-05-10T14:24:48.247Z,59.10
2023-05-10T14:27:49.835Z,60.10
2023-05-10T14:30:51.648Z,59.00
2023-05-10T14:33:53.931Z,59.90
2023-05-10T14:36:56.181Z,58.90
2023-05-10T14:39:57.830Z,57.70
2023-05-10T14:42:59.426Z,57.80
2023-05-10T14:46:01.107Z,57.80
2023-05-10T14:49:02.777Z,58.00
2023-05-10T14:52:04.435Z,55.90
2023-05-10T14:55:06.670Z,56.80
2023-05-10T14:58:08.241Z,57.50
2023-05-10T15:01:09.902Z,56.70
2023-05-10T15:04:13.812Z,57.00
2023-05-10T15:07:17.255Z,59.50
2023-05-10T15:10:19.154Z,59.40
2023-05-10T15:13:20.784Z,57.30
2023-05-10T15:16:22.958Z,57.30
2023-05-10T15:19:24.724Z,56.60
2023-05-10T15:22:26.563Z,56.10
2023-05-10T15:25:29.622Z,55.80
2023-05-10T15:28:32.425Z,55.40
2023-05-10T15:31:37.610Z,55.90
2023-05-10T15:34:39.272Z,54.50
2023-05-10T15:37:40.845Z,54.40
2023-05-10T15:40:42.474Z,53.60
2023-05-10T15:43:44.054Z,55.40
2023-05-10T15:46:46.201Z,56.00
2023-05-10T15:49:47.772Z,54.70
2023-05-10T15:52:49.552Z,53.70
2023-05-10T15:55:51.581Z,53.30
2023-05-10T15:58:53.124Z,54.40
2023-05-10T16:01:54.977Z,53.90
2023-05-10T16:04:56.562Z,54.00
2023-05-10T16:07:58.227Z,52.90
2023-05-10T16:11:00.658Z,52.90
2023-05-10T16:14:02.246Z,53.60
2023-05-10T16:17:04.633Z,53.00
2023-05-10T16:20:07.230Z,52.90
2023-05-10T16:23:08.878Z,53.00
2023-05-10T16:26:10.456Z,51.20
2023-05-10T16:29:12.044Z,51.10
2023-05-10T16:32:13.663Z,50.40
2023-05-10T16:35:15.458Z,48.70
2023-05-10T16:38:17.305Z,47.80
2023-05-10T16:41:18.886Z,47.70
2023-05-10T16:44:21.091Z,46.90
2023-05-10T16:47:26.477Z,46.80
2023-05-10T16:50:28.178Z,46.10
2023-05-10T16:53:30.930Z,45.90
2023-05-10T16:56:32.501Z,45.40
2023-05-10T16:59:34.138Z,45.30
2023-05-10T17:02:35.898Z,45.40
2023-05-10T17:05:37.785Z,46.20
2023-05-10T17:08:39.449Z,46.40
2023-05-10T17:11:42.085Z,45.90
2023-05-10T17:14:43.739Z,46.20
2023-05-10T17:17:45.354Z,46.40
2023-05-10T17:20:47.014Z,47.60
2023-05-10T17:23:48.611Z,48.20
2023-05-10T17:26:50.225Z,48.30
2023-05-10T17:29:59.067Z,49.10
2023-05-10T17:33:01.061Z,48.30
2023-05-10T17:36:02.680Z,49.70
2023-05-10T17:39:04.315Z,49.40
2023-05-10T17:42:06.120Z,49.70
2023-05-10T17:45:08.265Z,49.80
2023-05-10T17:48:11.240Z,50.40
2023-05-10T17:51:13.182Z,50.40
2023-05-10T17:54:15.017Z,51.10
2023-05-10T17:57:17.169Z,52.70
2023-05-10T18:00:18.907Z,53.20
2023-05-10T18:03:20.783Z,51.90
2023-05-10T18:06:22.560Z,52.90
2023-05-10T18:09:24.145Z,53.60
2023-05-10T18:12:25.931Z,54.00
2023-05-10T18:15:27.726Z,53.80
2023-05-10T18:18:29.420Z,53.60
2023-05-10T18:21:31.308Z,54.10
2023-05-10T18:27:38.194Z,55.30
2023-05-10T18:30:41.051Z,56.50
2023-05-10T18:33:42.838Z,56.40
2023-05-10T18:36:44.618Z,56.50
2023-05-10T18:39:46.331Z,56.90
2023-05-10T18:42:49.965Z,57.20
2023-05-10T18:45:52.365Z,57.60
2023-05-10T18:48:54.862Z,57.90
2023-05-10T18:51:56.457Z,58.30
2023-05-10T18:54:58.141Z,58.90
2023-05-10T18:58:00.278Z,59.80
2023-05-10T19:01:02.233Z,60.50
2023-05-10T19:04:03.996Z,60.80
2023-05-10T19:07:05.789Z,61.10
2023-05-10T19:10:07.771Z,61.40
2023-05-10T19:13:09.404Z,61.50
2023-05-10T19:16:12.991Z,61.90
2023-05-10T19:19:14.959Z,62.20
2023-05-10T19:22:16.614Z,62.50
2023-05-10T19:25:19.357Z,62.70
2023-05-10T19:28:22.643Z,62.90
2023-05-10T19:31:24.412Z,63.70
2023-05-10T19:34:27.244Z,64.00
2023-05-10T19:37:28.828Z,64.30
2023-05-10T19:40:30.634Z,64.90
2023-05-10T19:43:37.392Z,65.80
2023-05-10T19:46:39.205Z,66.20
2023-05-10T19:49:40.922Z,67.40
2023-05-10T19:52:42.679Z,66.10
2023-05-10T19:55:44.331Z,67.10
2023-05-10T19:58:46.105Z,66.80
2023-05-10T20:01:47.652Z,67.30
2023-05-10T20:04:49.932Z,67.60
2023-05-10T20:07:51.618Z,67.60
2023-05-10T20:10:53.289Z,67.80
2023-05-10T20:13:54.961Z,68.30
2023-05-10T20:16:56.673Z,69.20
2023-05-10T20:19:58.258Z,69.20
2023-05-10T20:22:59.864Z,69.60
2023-05-10T20:26:01.491Z,69.90
2023-05-10T20:29:03.611Z,70.30
2023-05-10T20:32:05.730Z,70.60
2023-05-10T20:35:07.695Z,71.10
2023-05-10T20:38:09.263Z,71.50
2023-05-10T20:41:10.843Z,71.50
2023-05-10T20:44:12.430Z,71.80
2023-05-10T20:47:15.299Z,72.40
2023-05-10T20:50:17.385Z,72.90
2023-05-10T20:53:19.382Z,73.20
2023-05-10T20:56:21.310Z,73.20
2023-05-10T20:59:23.167Z,73.50
2023-05-10T21:02:24.834Z,73.60
2023-05-10T21:05:26.712Z,73.30
2023-05-10T21:08:28.451Z,73.30
2023-05-10T21:11:30.242Z,73.70
2023-05-10T21:14:31.831Z,74.00
2023-05-10T21:17:33.628Z,74.00
2023-05-10T21:20:35.237Z,74.20
2023-05-10T21:23:36.793Z,74.30
2023-05-10T21:26:38.538Z,74.30
2023-05-10T21:29:40.685Z,74.30
2023-05-10T21:32:42.537Z,74.60
2023-05-10T21:35:44.163Z,74.70
2023-05-10T21:38:46.390Z,74.70
2023-05-10T21:41:47.983Z,75.00
2023-05-10T21:44:49.645Z,75.20
2023-05-10T21:47:51.273Z,75.20
2023-05-10T21:50:52.892Z,75.30
2023-05-10T21:53:54.586Z,75.40
2023-05-10T21:56:56.142Z,75.80
2023-05-10T21:59:57.786Z,76.20
2023-05-10T22:02:59.488Z,76.20
2023-05-10T22:06:01.163Z,76.40
2023-05-10T22:09:02.871Z,76.50
2023-05-10T22:12:04.732Z,76.40
2023-05-10T22:15:10.205Z,76.40
2023-05-10T22:18:12.535Z,76.40
2023-05-10T22:21:14.191Z,76.60
2023-05-10T22:24:15.790Z,77.00
2023-05-10T22:27:17.888Z,76.90
2023-05-10T22:30:20.137Z,77.20
2023-05-10T22:33:22.013Z,77.10
2023-05-10T22:36:23.615Z,77.20
2023-05-10T22:39:25.379Z,77.30
2023-05-10T22:42:27.045Z,77.20
2023-05-10T22:45:28.597Z,77.20
2023-05-10T22:48:31.258Z,77.20
2023-05-10T22:51:32.853Z,77.30
2023-05-10T22:54:36.239Z,77.40
2023-05-10T22:57:38.123Z,77.80
2023-05-10T23:00:40.277Z,78.10
2023-05-10T23:03:42.218Z,78.40
2023-05-10T23:06:43.782Z,78.40
2023-05-10T23:09:46.061Z,78.70
2023-05-10T23:12:48.081Z,78.70
2023-05-10T23:15:49.681Z,78.90
2023-05-10T23:18:51.385Z,79.40
2023-05-10T23:21:53.040Z,79.60
2023-05-10T23:24:54.691Z,80.00
2023-05-10T23:27:56.969Z,80.20
2023-05-10T23:30:59.066Z,80.50
2023-05-10T23:34:00.632Z,80.60
2023-05-10T23:37:02.428Z,80.70
2023-05-10T23:40:04.588Z,81.10
2023-05-10T23:43:06.635Z,81.30
2023-05-10T23:46:08.254Z,81.50
2023-05-10T23:49:09.869Z,81.50
2023-05-10T23:52:11.429Z,81.50
2023-05-10T23:55:13.069Z,81.50
2023-05-10T23:58:14.816Z,81.70
